Time,TemperatureF,DewpointF,PressureIn,WindDirection,WindDirectionDegrees,WindSpeedMPH,WindSpeedGustMPH,Humidity,HourlyPrecipIn,Conditions,Clouds,dailyrainin,SoftwareType,DateUTC
2013-06-13 00:01:00,66.0,65.0,29.89,West,270,0.0,1.0,95,0.00,,,0.00,,2013-06-13 04:01:00,
2013-06-13 00:12:00,66.0,65.0,29.89,West,270,0.0,1.0,95,0.00,,,0.00,,2013-06-13 04:12:00,
2013-06-13 00:22:00,66.0,65.0,29.89,West,270,0.0,1.0,95,0.00,,,0.00,,2013-06-13 04:22:00,
2013-06-13 00:32:00,66.0,65.0,29.88,West,270,0.0,0.0,95,0.00,,,0.00,,2013-06-13 04:32:00,
2013-06-13 00:43:00,66.0,65.0,29.88,West,270,0.0,0.0,95,0.00,,,0.00,,2013-06-13 04:43:00,
2013-06-13 00:54:00,66.0,65.0,29.88,West,270,0.0,0.0,95,0.00,,,0.00,,2013-06-13 04:54:00,
2013-06-13 01:02:00,65.0,64.0,29.89,West,270,0.0,1.0,96,0.00,,,0.00,,2013-06-13 05:02:00,
2013-06-13 01:12:00,65.0,64.0,29.89,West,270,0.0,1.0,96,0.00,,,0.00,,2013-06-13 05:12:00,
2013-06-13 01:24:00,65.0,64.0,29.89,West,270,0.0,1.0,96,0.00,,,0.00,,2013-06-13 05:24:00,
2013-06-13 01:33:00,66.0,65.0,29.89,West,270,0.0,1.0,97,0.00,,,0.00,,2013-06-13 05:33:00,
2013-06-13 01:43:00,66.0,65.0,29.89,West,270,0.0,1.0,97,0.00,,,0.00,,2013-06-13 05:43:00,
2013-06-13 01:53:00,66.0,65.0,29.89,West,270,0.0,1.0,97,0.00,,,0.00,,2013-06-13 05:53:00,
2013-06-13 02:02:00,67.0,66.0,29.87,SW,225,0.0,2.0,97,0.00,,,0.00,,2013-06-13 06:02:00,
2013-06-13 02:10:00,68.0,67.0,29.87,WNW,293,0.0,2.0,95,0.00,,,0.00,,2013-06-13 06:10:00,
2013-06-13 02:11:00,67.0,66.0,29.87,SW,225,0.0,2.0,97,0.00,,,0.00,,2013-06-13 06:11:00,
2013-06-13 02:22:00,67.0,66.0,29.87,SW,225,0.0,2.0,97,0.00,,,0.00,,2013-06-13 06:22:00,
2013-06-13 02:33:00,68.0,67.0,29.87,WNW,293,0.0,2.0,95,0.00,,,0.00,,2013-06-13 06:33:00,
2013-06-13 02:44:00,68.0,67.0,29.87,WNW,293,0.0,2.0,95,0.00,,,0.00,,2013-06-13 06:44:00,
2013-06-13 02:52:00,68.0,67.0,29.87,WNW,293,0.0,2.0,95,0.00,,,0.00,,2013-06-13 06:52:00,
2013-06-13 03:01:00,68.0,67.0,29.87,WNW,293,0.0,2.0,95,0.00,,,0.00,,2013-06-13 07:01:00,
2013-06-13 03:33:00,72.0,68.0,29.86,SSE,158,1.0,5.0,86,0.00,,,0.00,,2013-06-13 07:33:00,
2013-06-13 03:42:00,72.0,68.0,29.86,SSE,158,1.0,5.0,86,0.00,,,0.00,,2013-06-13 07:42:00,
2013-06-13 03:52:00,72.0,68.0,29.86,SSE,158,1.0,5.0,86,0.00,,,0.00,,2013-06-13 07:52:00,
2013-06-13 04:01:00,72.0,68.0,29.85,ENE,68,2.0,6.0,86,0.00,,,0.00,,2013-06-13 08:01:00,
2013-06-13 04:11:00,72.0,68.0,29.85,ENE,68,2.0,6.0,86,0.00,,,0.00,,2013-06-13 08:11:00,
2013-06-13 04:22:00,72.0,68.0,29.85,ENE,68,2.0,6.0,86,0.00,,,0.00,,2013-06-13 08:22:00,
2013-06-13 04:32:00,72.0,68.0,29.82,ESE,113,1.0,5.0,87,0.00,,,0.00,,2013-06-13 08:32:00,
2013-06-13 04:43:00,72.0,68.0,29.82,ESE,113,1.0,5.0,87,0.00,,,0.00,,2013-06-13 08:43:00,
2013-06-13 04:52:00,72.0,68.0,29.82,ESE,113,1.0,5.0,87,0.00,,,0.00,,2013-06-13 08:52:00,
2013-06-13 05:02:00,72.0,68.0,29.80,SE,135,1.0,5.0,87,0.00,,,0.00,,2013-06-13 09:02:00,
2013-06-13 05:11:00,71.0,67.0,29.79,ESE,113,2.0,9.0,87,0.00,,,0.00,,2013-06-13 09:11:00,
2013-06-13 05:12:00,72.0,68.0,29.80,SE,135,1.0,5.0,87,0.00,,,0.00,,2013-06-13 09:12:00,
2013-06-13 05:22:00,72.0,68.0,29.80,SE,135,1.0,5.0,87,0.00,,,0.00,,2013-06-13 09:22:00,
2013-06-13 05:32:00,71.0,67.0,29.79,ESE,113,2.0,9.0,87,0.00,,,0.00,,2013-06-13 09:32:00,
2013-06-13 05:42:00,71.0,67.0,29.79,ESE,113,2.0,9.0,87,0.00,,,0.00,,2013-06-13 09:42:00,
2013-06-13 05:52:00,71.0,67.0,29.79,ESE,113,2.0,9.0,87,0.00,,,0.00,,2013-06-13 09:52:00,
2013-06-13 06:01:00,71.0,67.0,29.79,ESE,113,2.0,9.0,87,0.00,,,0.00,,2013-06-13 10:01:00,
2013-06-13 06:11:00,72.0,66.0,29.78,SSW,203,2.0,8.0,82,0.00,,,0.00,,2013-06-13 10:11:00,
2013-06-13 06:33:00,72.0,66.0,29.78,SSW,203,2.0,8.0,82,0.00,,,0.00,,2013-06-13 10:33:00,
2013-06-13 06:43:00,72.0,66.0,29.78,SSW,203,2.0,8.0,82,0.00,,,0.00,,2013-06-13 10:43:00,
2013-06-13 06:53:00,72.0,66.0,29.78,SSW,203,2.0,8.0,82,0.00,,,0.00,,2013-06-13 10:53:00,
2013-06-13 07:02:00,72.0,66.0,29.78,SSW,203,2.0,8.0,82,0.00,,,0.00,,2013-06-13 11:02:00,
2013-06-13 07:24:00,72.0,66.0,29.78,SW,225,3.0,8.0,81,0.00,,,0.00,,2013-06-13 11:24:00,
2013-06-13 07:32:00,72.0,66.0,29.78,SW,225,3.0,8.0,81,0.00,,,0.00,,2013-06-13 11:32:00,
2013-06-13 07:40:00,72.0,66.0,29.77,NNE,23,7.0,12.0,81,0.00,,,0.00,,2013-06-13 11:40:00,
2013-06-13 07:42:00,72.0,66.0,29.78,SW,225,3.0,8.0,81,0.00,,,0.00,,2013-06-13 11:42:00,
2013-06-13 07:52:00,72.0,66.0,29.78,SW,225,3.0,8.0,81,0.00,,,0.00,,2013-06-13 11:52:00,
2013-06-13 08:01:00,72.0,66.0,29.77,NNE,23,7.0,12.0,81,0.00,,,0.00,,2013-06-13 12:01:00,
2013-06-13 08:12:00,72.0,66.0,29.77,NNE,23,7.0,12.0,81,0.00,,,0.00,,2013-06-13 12:12:00,
2013-06-13 08:22:00,72.0,66.0,29.77,NNE,23,7.0,12.0,81,0.00,,,0.00,,2013-06-13 12:22:00,
2013-06-13 08:35:00,72.0,66.0,29.77,NNE,23,7.0,12.0,81,0.00,,,0.00,,2013-06-13 12:35:00,
2013-06-13 08:52:00,73.0,67.0,29.76,SE,135,1.0,8.0,81,0.00,,,0.00,,2013-06-13 12:52:00,
2013-06-13 09:02:00,73.0,67.0,29.76,SE,135,1.0,8.0,81,0.00,,,0.00,,2013-06-13 13:02:00,
2013-06-13 09:11:00,73.0,67.0,29.76,SE,135,1.0,8.0,81,0.00,,,0.00,,2013-06-13 13:11:00,
2013-06-13 09:22:00,73.0,67.0,29.75,East,90,0.0,10.0,81,0.00,,,0.00,,2013-06-13 13:22:00,
2013-06-13 09:33:00,73.0,67.0,29.75,East,90,0.0,10.0,81,0.00,,,0.00,,2013-06-13 13:33:00,
2013-06-13 09:43:00,73.0,67.0,29.75,East,90,0.0,10.0,81,0.00,,,0.00,,2013-06-13 13:43:00,
2013-06-13 09:53:00,73.0,67.0,29.75,East,90,0.0,10.0,81,0.00,,,0.00,,2013-06-13 13:53:00,
2013-06-13 10:02:00,74.0,67.0,29.75,North,0,3.0,12.0,78,0.00,,,0.00,,2013-06-13 14:02:00,
2013-06-13 10:11:00,74.0,67.0,29.75,North,0,3.0,12.0,78,0.00,,,0.00,,2013-06-13 14:11:00,
2013-06-13 10:22:00,74.0,67.0,29.75,North,0,3.0,12.0,78,0.00,,,0.00,,2013-06-13 14:22:00,
2013-06-13 10:33:00,75.0,66.0,29.73,East,90,3.0,10.0,74,0.00,,,0.00,,2013-06-13 14:33:00,
2013-06-13 10:43:00,75.0,66.0,29.73,East,90,3.0,10.0,74,0.00,,,0.00,,2013-06-13 14:43:00,
2013-06-13 10:53:00,76.0,67.0,29.72,SE,135,2.0,8.0,73,0.00,,,0.00,,2013-06-13 14:53:00,
2013-06-13 11:02:00,76.0,67.0,29.72,SE,135,2.0,8.0,73,0.00,,,0.00,,2013-06-13 15:02:00,
2013-06-13 11:12:00,76.0,67.0,29.72,SE,135,2.0,8.0,73,0.00,,,0.00,,2013-06-13 15:12:00,
2013-06-13 11:22:00,76.0,67.0,29.72,SE,135,2.0,8.0,73,0.00,,,0.00,,2013-06-13 15:22:00,
2013-06-13 11:33:00,76.0,67.0,29.70,NNW,338,2.0,14.0,73,0.00,,,0.00,,2013-06-13 15:33:00,
2013-06-13 11:43:00,76.0,67.0,29.70,NNW,338,2.0,14.0,73,0.00,,,0.00,,2013-06-13 15:43:00,
2013-06-13 11:53:00,76.0,67.0,29.70,NNW,338,2.0,14.0,73,0.00,,,0.00,,2013-06-13 15:53:00,
2013-06-13 12:02:00,79.0,68.0,29.69,NE,45,2.0,12.0,69,0.00,,,0.00,,2013-06-13 16:02:00,
2013-06-13 12:12:00,79.0,68.0,29.69,NE,45,2.0,12.0,69,0.00,,,0.00,,2013-06-13 16:12:00,
2013-06-13 12:22:00,79.0,68.0,29.69,NE,45,2.0,12.0,69,0.00,,,0.00,,2013-06-13 16:22:00,
2013-06-13 12:33:00,79.0,67.0,29.68,WNW,293,3.0,16.0,67,0.00,,,0.00,,2013-06-13 16:33:00,
2013-06-13 12:43:00,79.0,67.0,29.68,WNW,293,3.0,16.0,67,0.00,,,0.00,,2013-06-13 16:43:00,
2013-06-13 12:54:00,79.0,67.0,29.68,WNW,293,3.0,16.0,67,0.00,,,0.00,,2013-06-13 16:54:00,
2013-06-13 13:02:00,81.0,67.0,29.68,East,90,1.0,12.0,63,0.00,,,0.00,,2013-06-13 17:02:00,
2013-06-13 13:12:00,81.0,67.0,29.68,East,90,1.0,12.0,63,0.00,,,0.00,,2013-06-13 17:12:00,
2013-06-13 13:24:00,81.0,67.0,29.68,East,90,1.0,12.0,63,0.00,,,0.00,,2013-06-13 17:24:00,
2013-06-13 13:33:00,82.0,67.0,29.66,East,90,2.0,14.0,60,0.00,,,0.00,,2013-06-13 17:33:00,
2013-06-13 13:43:00,82.0,67.0,29.66,East,90,2.0,14.0,60,0.00,,,0.00,,2013-06-13 17:43:00,
2013-06-13 13:53:00,82.0,67.0,29.66,East,90,2.0,14.0,60,0.00,,,0.00,,2013-06-13 17:53:00,
2013-06-13 14:02:00,83.0,67.0,29.63,East,90,3.0,12.0,58,0.00,,,0.00,,2013-06-13 18:02:00,
2013-06-13 14:11:00,83.0,67.0,29.63,East,90,3.0,12.0,58,0.00,,,0.00,,2013-06-13 18:11:00,
2013-06-13 14:22:00,83.0,67.0,29.63,East,90,3.0,12.0,58,0.00,,,0.00,,2013-06-13 18:22:00,
2013-06-13 14:33:00,83.0,67.0,29.64,North,0,2.0,12.0,58,0.00,,,0.00,,2013-06-13 18:33:00,
2013-06-13 14:43:00,83.0,67.0,29.64,North,0,2.0,12.0,58,0.00,,,0.00,,2013-06-13 18:43:00,
2013-06-13 14:52:00,83.0,67.0,29.64,North,0,2.0,12.0,58,0.00,,,0.00,,2013-06-13 18:52:00,
2013-06-13 15:01:00,76.0,58.0,29.68,ENE,68,3.0,15.0,54,0.00,,,0.00,,2013-06-13 19:01:00,
2013-06-13 15:11:00,76.0,58.0,29.68,ENE,68,3.0,15.0,54,0.00,,,0.00,,2013-06-13 19:11:00,
2013-06-13 15:22:00,76.0,58.0,29.68,ENE,68,3.0,15.0,54,0.00,,,0.00,,2013-06-13 19:22:00,
2013-06-13 15:53:00,64.0,60.0,29.68,NNE,23,0.0,5.0,87,0.06,,,0.06,,2013-06-13 19:53:00,
2013-06-13 16:02:00,63.0,61.0,29.67,NE,45,1.0,3.0,94,0.08,,,0.08,,2013-06-13 20:02:00,
2013-06-13 16:11:00,63.0,61.0,29.67,NE,45,1.0,3.0,94,0.08,,,0.08,,2013-06-13 20:11:00,
2013-06-13 16:22:00,63.0,61.0,29.67,NE,45,1.0,3.0,94,0.08,,,0.08,,2013-06-13 20:22:00,
2013-06-13 16:33:00,65.0,63.0,29.62,East,90,1.0,10.0,93,0.02,,,0.08,,2013-06-13 20:33:00,
2013-06-13 16:44:00,65.0,63.0,29.62,East,90,1.0,10.0,93,0.02,,,0.08,,2013-06-13 20:44:00,
2013-06-13 16:53:00,65.0,63.0,29.62,East,90,1.0,10.0,93,0.02,,,0.08,,2013-06-13 20:53:00,
2013-06-13 17:02:00,68.0,64.0,29.62,SW,225,3.0,8.0,88,0.00,,,0.08,,2013-06-13 21:02:00,
2013-06-13 17:11:00,68.0,64.0,29.62,SW,225,3.0,8.0,88,0.00,,,0.08,,2013-06-13 21:11:00,
2013-06-13 17:22:00,68.0,64.0,29.62,SW,225,3.0,8.0,88,0.00,,,0.08,,2013-06-13 21:22:00,
2013-06-13 17:34:00,69.0,64.0,29.63,ESE,113,1.0,9.0,83,0.00,,,0.08,,2013-06-13 21:34:00,
2013-06-13 17:43:00,69.0,64.0,29.63,ESE,113,1.0,9.0,83,0.00,,,0.08,,2013-06-13 21:43:00,
2013-06-13 17:52:00,69.0,64.0,29.63,ESE,113,1.0,9.0,83,0.00,,,0.08,,2013-06-13 21:52:00,
2013-06-13 18:02:00,68.0,63.0,29.66,West,270,3.0,14.0,83,0.00,,,0.08,,2013-06-13 22:02:00,
2013-06-13 18:11:00,68.0,63.0,29.66,West,270,3.0,14.0,83,0.00,,,0.08,,2013-06-13 22:11:00,
2013-06-13 18:22:00,68.0,63.0,29.66,West,270,3.0,14.0,83,0.00,,,0.08,,2013-06-13 22:22:00,
2013-06-13 18:33:00,68.0,63.0,29.65,WSW,248,0.0,10.0,83,0.00,,,0.08,,2013-06-13 22:33:00,
2013-06-13 18:43:00,68.0,63.0,29.65,WSW,248,0.0,10.0,83,0.00,,,0.08,,2013-06-13 22:43:00,
2013-06-13 18:52:00,68.0,63.0,29.65,WSW,248,0.0,10.0,83,0.00,,,0.08,,2013-06-13 22:52:00,
2013-06-13 19:02:00,68.0,63.0,29.65,East,90,1.0,7.0,83,0.00,,,0.08,,2013-06-13 23:02:00,
2013-06-13 19:11:00,68.0,63.0,29.65,East,90,1.0,7.0,83,0.00,,,0.08,,2013-06-13 23:11:00,
2013-06-13 19:22:00,68.0,63.0,29.65,East,90,1.0,7.0,83,0.00,,,0.08,,2013-06-13 23:22:00,
2013-06-13 19:32:00,68.0,62.0,29.66,NE,45,2.0,5.0,80,0.00,,,0.08,,2013-06-13 23:32:00,
2013-06-13 19:43:00,68.0,62.0,29.66,NE,45,2.0,5.0,80,0.00,,,0.08,,2013-06-13 23:43:00,
2013-06-13 19:52:00,68.0,62.0,29.66,NE,45,2.0,5.0,80,0.00,,,0.08,,2013-06-13 23:52:00,
2013-06-13 20:01:00,67.0,61.0,29.67,SW,225,1.0,9.0,81,0.00,,,0.08,,2013-06-14 00:01:00,
2013-06-13 20:12:00,67.0,61.0,29.67,SW,225,1.0,9.0,81,0.00,,,0.08,,2013-06-14 00:12:00,
2013-06-13 20:22:00,67.0,61.0,29.67,SW,225,1.0,9.0,81,0.00,,,0.08,,2013-06-14 00:22:00,
2013-06-13 20:34:00,67.0,61.0,29.68,North,0,1.0,9.0,80,0.00,,,0.08,,2013-06-14 00:34:00,
2013-06-13 20:43:00,67.0,61.0,29.68,North,0,1.0,9.0,80,0.00,,,0.08,,2013-06-14 00:43:00,
2013-06-13 20:53:00,67.0,61.0,29.68,North,0,1.0,9.0,80,0.00,,,0.08,,2013-06-14 00:53:00,
2013-06-13 21:01:00,66.0,60.0,29.69,SW,225,1.0,7.0,81,0.00,,,0.08,,2013-06-14 01:01:00,
2013-06-13 21:11:00,66.0,60.0,29.69,SW,225,1.0,7.0,81,0.00,,,0.08,,2013-06-14 01:11:00,
2013-06-13 21:22:00,66.0,60.0,29.69,SW,225,1.0,7.0,81,0.00,,,0.08,,2013-06-14 01:22:00,
2013-06-13 21:33:00,65.0,59.0,29.70,North,0,0.0,7.0,82,0.00,,,0.08,,2013-06-14 01:33:00,
2013-06-13 21:43:00,65.0,59.0,29.70,North,0,0.0,7.0,82,0.00,,,0.08,,2013-06-14 01:43:00,
2013-06-13 21:53:00,65.0,59.0,29.70,North,0,0.0,7.0,82,0.00,,,0.08,,2013-06-14 01:53:00,
2013-06-13 22:02:00,63.0,59.0,29.73,NNE,23,1.0,6.0,87,0.01,,,0.09,,2013-06-14 02:02:00,
2013-06-13 22:11:00,63.0,59.0,29.73,NNE,23,1.0,6.0,87,0.01,,,0.09,,2013-06-14 02:11:00,
2013-06-13 22:22:00,63.0,59.0,29.73,NNE,23,1.0,6.0,87,0.01,,,0.09,,2013-06-14 02:22:00,
2013-06-13 22:32:00,62.0,57.0,29.74,West,270,0.0,5.0,84,0.01,,,0.09,,2013-06-14 02:32:00,
2013-06-13 22:43:00,62.0,57.0,29.74,West,270,0.0,5.0,84,0.01,,,0.09,,2013-06-14 02:43:00,
2013-06-13 22:53:00,62.0,57.0,29.74,West,270,0.0,5.0,84,0.01,,,0.09,,2013-06-14 02:53:00,
2013-06-13 23:02:00,61.0,56.0,29.75,WNW,293,1.0,3.0,84,0.00,,,0.09,,2013-06-14 03:02:00,
2013-06-13 23:12:00,61.0,56.0,29.75,WNW,293,1.0,3.0,84,0.00,,,0.09,,2013-06-14 03:12:00,
2013-06-13 23:22:00,61.0,56.0,29.75,WNW,293,1.0,3.0,84,0.00,,,0.09,,2013-06-14 03:22:00,
2013-06-13 23:34:00,59.0,53.0,29.77,West,270,0.0,6.0,81,0.00,,,0.09,,2013-06-14 03:34:00,
2013-06-13 23:43:00,59.0,53.0,29.77,West,270,0.0,6.0,81,0.00,,,0.09,,2013-06-14 03:43:00,
2013-06-13 23:53:00,59.0,53.0,29.77,West,270,0.0,6.0,81,0.00,,,0.09,,2013-06-14 03:53:00,